Flight Track Log - Related Links

Times and Time Zones

All times are in EDT time to prevent confusion due to time zone crossing. See the DAL268 flight status page for this flight to view local times or setup timezone preferences in your user account.

Time Position Orientation Groundspeed Altitude Reporting Facility
EDT Latitude Longitude Course Direction KTS MPH feet Rate Location/Type
Mon 02:31:51 PM 37.6060 -122.3830 180° South  Level FlightAware ADS-B
Mon 02:34:00 PM 37.8112 -122.1721 38° Northeast  Level FlightAware Approximate
Mon 02:35:00 PM 37.9067 -122.0767 38° Northeast  Level FlightAware Approximate
Mon 02:36:00 PM 37.9922 -121.9756 35° Northeast  Level FlightAware Approximate
Mon 02:37:00 PM 38.0923 -121.8881 35° Northeast  Level FlightAware Approximate
Mon 02:39:11 PM 37.6099 -122.3790 27° Northeast 86 99  Level FlightAware ADS-B
Mon 02:39:28 PM 37.6187 -122.3730 28° Northeast 155 178 250 Level FlightAware ADS-B
Mon 02:39:35 PM 37.6231 -122.3700 28° Northeast 168 193 100 2,250 Climbing FlightAware ADS-B
Mon 02:39:44 PM 37.6292 -122.3660 27° Northeast 158 182 600 2,824 Climbing FlightAware ADS-B
Mon 02:39:52 PM 37.6341 -122.3620 33° Northeast 157 181 900 2,143 Climbing FlightAware ADS-B
Mon 02:39:58 PM 37.6373 -122.3580 45° Northeast 161 185 1,100 2,000 Climbing FlightAware ADS-B
Mon 02:40:10 PM 37.6434 -122.3490 49° Northeast 172 198 1,500 1,636 Climbing FlightAware ADS-B
Mon 02:40:20 PM 37.6490 -122.3410 49° Northeast 186 214 1,700 1,385 Climbing FlightAware ADS-B
Mon 02:40:36 PM 37.6582 -122.3280 48° Northeast 206 237 2,100 1,448 Climbing FlightAware ADS-B
Mon 02:40:49 PM 37.6670 -122.3150 49° Northeast 225 259 2,400 1,615 Climbing FlightAware ADS-B
Mon 02:41:02 PM 37.6765 -122.3010 49° Northeast 243 280 2,800 1,862 Climbing FlightAware ADS-B
Mon 02:41:18 PM 37.6884 -122.2840 49° Northeast 259 298 3,300 2,545 Climbing FlightAware ADS-B
Mon 02:41:35 PM 37.7019 -122.2650 48° Northeast 262 302 4,200 2,824 Climbing FlightAware ADS-B
Mon 02:41:52 PM 37.7161 -122.2440 49° Northeast 269 310 4,900 2,909 Climbing FlightAware ADS-B
Mon 02:42:08 PM 37.7298 -122.2250 48° Northeast 274 315 5,800 3,273 Climbing FlightAware ADS-B
Mon 02:42:25 PM 37.7438 -122.2050 48° Northeast 275 316 6,700 2,743 Climbing FlightAware ADS-B
Mon 02:42:43 PM 37.7591 -122.1830 49° Northeast 283 326 7,400 2,700 Climbing FlightAware ADS-B
Mon 02:43:05 PM 37.7792 -122.1550 48° Northeast 288 331 8,500 2,769 Climbing FlightAware ADS-B
Mon 02:43:22 PM 37.7937 -122.1340 49° Northeast 293 337 9,200 2,640 Climbing FlightAware ADS-B
Mon 02:43:30 PM 37.8013 -122.1240 46° Northeast 297 342 9,600 3,000 Climbing FlightAware ADS-B
Mon 02:43:34 PM 37.8053 -122.1190 45° Northeast 296 341 9,800 2,769 Climbing FlightAware ADS-B
Mon 02:43:43 PM 37.8151 -122.1090 39° Northeast 298 343 10,200 1,500 Climbing FlightAware ADS-B
Mon 02:44:14 PM 37.8517 -122.0770 35° Northeast 331 381 10,800 1,377 Climbing FlightAware ADS-B
Mon 02:44:44 PM 37.8922 -122.0410 35° Northeast 359 413 11,600 1,400 Climbing FlightAware ADS-B
Mon 02:45:14 PM 37.9356 -122.0040 34° Northeast 388 447 12,200 1,792 Climbing FlightAware ADS-B
Mon 02:46:01 PM 38.0057 -121.9410 35° Northeast 394 453 13,900 2,110 Climbing FlightAware ADS-B
Mon 02:46:45 PM 38.0700 -121.8830 35° Northeast 418 481 15,400 2,000 Climbing FlightAware ADS-B
Mon 02:47:19 PM 38.1270 -121.8330 35° Northeast 430 495 16,500 2,000 Climbing FlightAware ADS-B
Mon 02:47:54 PM 38.1850 -121.7820 35° Northeast 438 504 17,700 1,971 Climbing FlightAware ADS-B
Mon 02:48:29 PM 38.2440 -121.7300 35° Northeast 448 516 18,800 1,840 Climbing FlightAware ADS-B
Mon 02:49:09 PM 38.3110 -121.6700 35° Northeast 456 525 20,000 1,808 Climbing FlightAware ADS-B
Mon 02:49:42 PM 38.3670 -121.6200 35° Northeast 462 532 21,000 1,826 Climbing FlightAware ADS-B
Mon 02:50:18 PM 38.4330 -121.5570 37° Northeast 469 540 22,100 1,800 Climbing FlightAware ADS-B
Mon 02:50:52 PM 38.4820 -121.4880 48° Northeast 473 544 23,100 1,690 Climbing FlightAware ADS-B
Mon 02:51:29 PM 38.5300 -121.4050 54° Northeast 478 550 24,100 1,588 Climbing FlightAware ADS-B
Mon 02:52:00 PM 38.5710 -121.3340 54° Northeast 483 556 24,900 1,433 Climbing FlightAware ADS-B
Mon 02:52:36 PM 38.6190 -121.2510 53° Northeast 490 564 25,700 1,324 Climbing FlightAware ADS-B
Mon 02:53:08 PM 38.6630 -121.1750 53° Northeast 495 570 26,400 1,235 Climbing FlightAware ADS-B
Mon 02:53:44 PM 38.7120 -121.0890 54° Northeast 502 578 27,100 1,184 Climbing FlightAware ADS-B
Mon 02:54:24 PM 38.7680 -120.9930 53° Northeast 505 581 27,900 1,250 Climbing FlightAware ADS-B
Mon 02:54:56 PM 38.8120 -120.9160 54° Northeast 507 583 28,600 1,500 Climbing FlightAware ADS-B
Mon 02:55:32 PM 38.8620 -120.8300 53° Northeast 504 580 29,600 1,644 Climbing FlightAware ADS-B
Mon 02:56:09 PM 38.9130 -120.7430 53° Northeast 501 577 30,600 1,652 Climbing FlightAware ADS-B
Mon 02:56:41 PM 38.9577 -120.6649 54° Northeast 497 572 31,500 1,433 Climbing FlightAware ADS-B
Mon 02:57:16 PM 39.0050 -120.5831 53° Northeast 496 571 32,200 1,273 Climbing FlightAware ADS-B
Mon 02:57:47 PM 39.0478 -120.5085 53° Northeast 495 570 32,900 1,315 Climbing FlightAware ADS-B
Mon 02:58:29 PM 39.1038 -120.4108 54° Northeast 493 567 33,800 1,250 Climbing FlightAware ADS-B
Mon 02:58:59 PM 39.1451 -120.3387 54° Northeast 491 565 34,400 1,000 Climbing FlightAware ADS-B
Mon 02:59:41 PM 39.2006 -120.2414 54° Northeast 494 568 35,000 480 Climbing FlightAware ADS-B
Mon 03:00:14 PM 39.2440 -120.1650 54° Northeast 494 568 35,000  Level FlightAware ADS-B
Mon 03:00:20 PM 39.2548 -120.1462 53° Northeast 495 570 35,000  Level FlightAware ADS-B
Mon 03:00:53 PM 39.2969 -120.0721 54° Northeast 498 573 35,000  Level FlightAware ADS-B
Mon 03:01:23 PM 39.3392 -119.9975 54° Northeast 500 575 35,000  Level FlightAware ADS-B
Mon 03:01:57 PM 39.3860 -119.9150 54° Northeast 499 574 35,000  Level FlightAware ADS-B
Mon 03:02:05 PM 39.3959 -119.8970 55° Northeast 499 574 35,000  Level FlightAware ADS-B
Mon 03:02:46 PM 39.4494 -119.8019 54° Northeast 498 573 35,000  Level FlightAware ADS-B
Mon 03:03:30 PM 39.5086 -119.6959 54° Northeast 499 574 35,000  Level FlightAware ADS-B
Mon 03:04:10 PM 39.5572 -119.5905 59° Northeast 499 574 35,000  Level FlightAware ADS-B
Mon 03:04:46 PM 39.5960 -119.4935 63° Northeast 500 575 35,000  Level FlightAware ADS-B
Mon 03:05:16 PM 39.6275 -119.4133 63° Northeast 500 575 35,000  Level FlightAware ADS-B
Mon 03:05:46 PM 39.6586 -119.3341 63° Northeast 500 575 35,000  Level FlightAware ADS-B
Mon 03:06:16 PM 39.6898 -119.2541 63° Northeast 500 575 35,000  Level FlightAware ADS-B
Mon 03:06:56 PM 39.7318 -119.1468 63° Northeast 500 575 35,000  Level FlightAware ADS-B
Mon 03:07:32 PM 39.7694 -119.0504 63° Northeast 500 575 35,000  Level FlightAware ADS-B
Mon 03:08:02 PM 39.8006 -118.9700 63° Northeast 500 575 35,000  Level FlightAware ADS-B
Mon 03:08:34 PM 39.8344 -118.8830 63° Northeast 500 575 35,000  Level FlightAware ADS-B
Mon 03:09:14 PM 39.8751 -118.7780 63° Northeast 500 575 35,000  Level FlightAware ADS-B
Mon 03:09:58 PM 39.9212 -118.6583 63° Northeast 501 577 35,000  Level FlightAware ADS-B
Mon 03:10:28 PM 39.9521 -118.5777 63° Northeast 501 577 35,000  Level FlightAware ADS-B
Mon 03:11:09 PM 39.9938 -118.4686 63° Northeast 501 577 35,000  Level FlightAware ADS-B
Mon 03:11:56 PM 40.0430 -118.3390 64° Northeast 501 577 35,000  Level FlightAware ADS-B
Mon 03:12:35 PM 40.0820 -118.2350 64° Northeast 503 579 35,000  Level FlightAware ADS-B
Mon 03:13:07 PM 40.1160 -118.1460 63° Northeast 504 580 35,000  Level FlightAware ADS-B
Mon 03:13:42 PM 40.1470 -118.0670 63° Northeast 504 580 35,000  Level FlightAware ADS-B
Mon 03:14:18 PM 40.1790 -117.9840 63° Northeast 504 580 35,000  Level FlightAware ADS-B
Mon 03:14:54 PM 40.2120 -117.9000 63° Northeast 504 580 35,000  Level FlightAware ADS-B
Mon 03:15:30 PM 40.2440 -117.8170 63° Northeast 504 580 35,000  Level FlightAware ADS-B
Mon 03:16:07 PM 40.2770 -117.7310 63° Northeast 504 580 35,000  Level FlightAware ADS-B
Mon 03:16:43 PM 40.3100 -117.6480 62° Northeast 504 580 35,000  Level FlightAware ADS-B
Mon 03:17:19 PM 40.3420 -117.5650 63° Northeast 504 580 35,000  Level FlightAware ADS-B
Mon 03:17:56 PM 40.3760 -117.4790 63° Northeast 504 580 35,000  Level FlightAware ADS-B
Mon 03:18:32 PM 40.4080 -117.3950 63° Northeast 504 580 35,000  Level FlightAware ADS-B
Mon 03:19:09 PM 40.4410 -117.3100 63° Northeast 504 580 35,000  Level FlightAware ADS-B
Mon 03:19:46 PM 40.4740 -117.2240 63° Northeast 504 580 35,000  Level FlightAware ADS-B
Mon 03:20:22 PM 40.5070 -117.1400 63° Northeast 504 580 35,000  Level FlightAware ADS-B
Mon 03:20:58 PM 40.5390 -117.0560 63° Northeast 504 580 35,000  Level FlightAware ADS-B
Mon 03:21:36 PM 40.5730 -116.9680 63° Northeast 504 580 35,000  Level FlightAware ADS-B
Mon 03:22:13 PM 40.6070 -116.8820 62° Northeast 504 580 35,000  Level FlightAware ADS-B
Mon 03:22:47 PM 40.6370 -116.8030 63° Northeast 504 580 35,000  Level FlightAware ADS-B
Mon 03:25:45 PM 40.8153 -116.0170 73° East 510 587 35,000  Level FlightAware ADS-B
Mon 03:26:16 PM 40.8390 -115.9270 71° East 512 589 35,000  Level FlightAware ADS-B
Mon 03:26:47 PM 40.8630 -115.8350 71° East 512 589 35,000  Level FlightAware ADS-B
Mon 03:28:23 PM 40.9366 -115.5520 71° East 512 589 35,000  Level FlightAware ADS-B
Mon 03:29:55 PM 41.0062 -115.2810 71° East 512 589 35,000  Level FlightAware ADS-B
Mon 03:30:25 PM 41.0292 -115.1910 71° East 512 589 35,000  Level FlightAware ADS-B
Mon 03:30:57 PM 41.0529 -115.0970 71° East 512 589 35,000  Level FlightAware ADS-B
Mon 03:31:30 PM 41.0777 -114.9990 71° East 513 590 35,000  Level FlightAware ADS-B
Mon 03:32:13 PM 41.1102 -114.8700 71° East 513 590 35,000  Level FlightAware ADS-B
Mon 03:32:54 PM 41.1411 -114.7460 72° East 515 593 35,000  Level FlightAware ADS-B
Mon 03:33:24 PM 41.1636 -114.6560 72° East 515 593 35,000  Level FlightAware ADS-B
Mon 03:33:55 PM 41.1860 -114.5660 72° East 515 593 35,000  Level FlightAware ADS-B
Mon 03:34:30 PM 41.2124 -114.4590 72° East 515 593 35,000  Level FlightAware ADS-B
Mon 03:35:00 PM 41.2346 -114.3690 72° East 514 592 35,000  Level FlightAware ADS-B
Mon 03:35:31 PM 41.2569 -114.2780 72° East 515 593 35,000  Level FlightAware ADS-B
Mon 03:36:01 PM 41.2789 -114.1880 72° East 516 594 35,000  Level FlightAware ADS-B
Mon 03:36:31 PM 41.3011 -114.0970 72° East 516 594 35,000  Level FlightAware ADS-B
Mon 03:37:02 PM 41.3238 -114.0030 72° East 516 594 35,000  Level FlightAware ADS-B
Mon 03:37:33 PM 41.3465 -113.9080 72° East 516 594 35,000  Level FlightAware ADS-B
Mon 03:37:48 PM 41.3539 -113.8743 74° East 515 593 35,000  Level FlightAware ADS-B
Mon 03:37:59 PM 41.3624 -113.8300 76° East 514 592 35,000  Level FlightAware ADS-B
Mon 03:38:18 PM 41.3715 -113.7723 78° East 513 590 35,000  Level FlightAware ADS-B
Mon 03:38:29 PM 41.3766 -113.7360 79° East 512 589 35,000  Level FlightAware ADS-B
Mon 03:38:59 PM 41.3888 -113.6430 80° East 512 589 35,000  Level FlightAware ADS-B
Mon 03:39:02 PM 41.3896 -113.6371 80° East 513 590 35,000  Level FlightAware ADS-B
Mon 03:39:40 PM 41.4047 -113.5180 80° East 513 590 35,000  Level FlightAware ADS-B
Mon 03:39:46 PM 41.4068 -113.5008 81° East 513 590 35,000  Level FlightAware ADS-B
Mon 03:40:10 PM 41.4165 -113.4240 80° East 513 590 35,000  Level FlightAware ADS-B
Mon 03:40:27 PM 41.4227 -113.3746 80° East 513 590 35,000  Level FlightAware ADS-B
Mon 03:40:40 PM 41.4283 -113.3300 81° East 513 590 35,000  Level FlightAware ADS-B
Mon 03:41:09 PM 41.4381 -113.2519 80° East 513 590 35,000  Level FlightAware ADS-B
Mon 03:41:32 PM 41.4483 -113.1700 81° East 513 590 35,000  Level FlightAware ADS-B
Mon 03:41:51 PM 41.4553 -113.1127 81° East 514 592 35,000  Level FlightAware ADS-B
Mon 03:42:03 PM 41.4602 -113.0730 81° East 514 592 35,000  Level FlightAware ADS-B
Mon 03:42:22 PM 41.4668 -113.0192 81° East 514 592 35,000  Level FlightAware ADS-B
Mon 03:42:45 PM 41.4763 -112.9420 81° East 514 592 35,000  Level FlightAware ADS-B
Mon 03:42:55 PM 41.4800 -112.9113 81° East 514 592 35,000  Level FlightAware ADS-B
Mon 03:43:17 PM 41.4886 -112.8410 81° East 515 593 35,000  Level FlightAware ADS-B
Mon 03:43:25 PM 41.4916 -112.8164 81° East 515 593 35,000  Level FlightAware ADS-B
Mon 03:43:54 PM 41.5027 -112.7240 81° East 514 592 35,000  Level FlightAware ADS-B
Mon 03:43:58 PM 41.5038 -112.7149 81° East 514 592 35,000  Level FlightAware ADS-B
Mon 03:44:29 PM 41.5146 -112.6242 81° East 515 593 35,000  Level FlightAware ADS-B
Mon 03:45:01 PM 41.5275 -112.5160 81° East 515 593 35,000  Level FlightAware ADS-B
Mon 03:45:31 PM 41.5384 -112.4210 81° East 515 593 35,000  Level FlightAware ADS-B
Mon 03:45:34 PM 41.5391 -112.4140 83° East 515 593 35,000  Level FlightAware ADS-B
Mon 03:46:07 PM 41.5492 -112.3162 82° East 515 593 35,000  Level FlightAware ADS-B
Mon 03:46:15 PM 41.5526 -112.2840 82° East 515 593 35,000  Level FlightAware ADS-B
Mon 03:46:38 PM 41.5597 -112.2145 82° East 515 593 35,000  Level FlightAware ADS-B
Mon 03:46:51 PM 41.5643 -112.1710 82° East 515 593 35,000  Level FlightAware ADS-B
Mon 03:47:08 PM 41.5697 -112.1181 82° East 515 593 35,000  Level FlightAware ADS-B
Mon 03:47:22 PM 41.5741 -112.0750 82° East 515 593 35,000  Level FlightAware ADS-B
Mon 03:47:39 PM 41.5794 -112.0231 82° East 514 592 35,000  Level FlightAware ADS-B
Mon 03:48:03 PM 41.5873 -111.9470 82° East 514 592 35,000  Level FlightAware ADS-B
Mon 03:48:10 PM 41.5889 -111.9303 83° East 514 592 35,000  Level FlightAware ADS-B
Mon 03:48:37 PM 41.5982 -111.8390 82° East 514 592 35,000  Level FlightAware ADS-B
Mon 03:48:42 PM 41.5992 -111.8299 82° East 514 592 35,000  Level FlightAware ADS-B
Mon 03:49:10 PM 41.6087 -111.7350 82° East 513 590 35,000  Level FlightAware ADS-B
Mon 03:49:28 PM 41.6134 -111.6780 84° East 512 589 35,000  Level FlightAware ADS-B
Mon 03:49:43 PM 41.6126 -111.6320 91° East 509 586 35,000  Level FlightAware ADS-B
Mon 03:50:14 PM 41.6036 -111.5360 97° East 508 585 35,000  Level FlightAware ADS-B
Mon 03:50:45 PM 41.5934 -111.4410 98° East 508 585 35,000  Level FlightAware ADS-B
Mon 03:51:15 PM 41.5850 -111.3450 97° East 508 585 35,000  Level FlightAware ADS-B
Mon 03:51:45 PM 41.5772 -111.2520 96° East 507 583 35,000  Level FlightAware ADS-B
Mon 03:52:16 PM 41.5693 -111.1590 96° East 507 583 35,000  Level FlightAware ADS-B
Mon 03:52:48 PM 41.5605 -111.0570 97° East 507 583 35,000  Level FlightAware ADS-B
Mon 03:53:19 PM 41.5520 -110.9620 97° East 508 585 35,000  Level FlightAware ADS-B
Mon 03:53:49 PM 41.5433 -110.8680 97° East 507 583 35,000  Level FlightAware ADS-B
Mon 03:54:20 PM 41.5345 -110.7720 97° East 506 582 35,000  Level FlightAware ADS-B
Mon 03:55:04 PM 41.5340 -110.6420 90° East 510 587 35,000  Level FlightAware ADS-B
Mon 03:55:36 PM 41.5460 -110.5370 81° East 512 589 35,000  Level FlightAware ADS-B
Mon 03:56:12 PM 41.5600 -110.4250 80° East 511 588 35,000  Level FlightAware ADS-B
Mon 03:56:48 PM 41.5750 -110.3130 80° East 510 587 35,000  Level FlightAware ADS-B
Mon 03:57:22 PM 41.5880 -110.2060 81° East 508 585 35,000  Level FlightAware ADS-B
Mon 03:57:56 PM 41.6010 -110.1070 80° East 507 583 35,000  Level FlightAware ADS-B
Mon 03:58:35 PM 41.6140 -110.0050 80° East 507 583 35,000  Level FlightAware ADS-B
Mon 03:59:12 PM 41.6270 -109.9080 80° East 507 583 35,000  Level FlightAware ADS-B
Mon 03:59:48 PM 41.6400 -109.8130 80° East 507 583 35,000  Level FlightAware ADS-B
Mon 04:00:24 PM 41.6520 -109.7190 80° East 507 583 35,000  Level FlightAware ADS-B
Mon 04:00:59 PM 41.6640 -109.6270 80° East 507 583 35,000  Level FlightAware ADS-B
Mon 04:01:35 PM 41.6860 -109.4300 81° East 504 580 35,000  Level FlightAware ADS-B
Mon 04:02:11 PM 41.6990 -109.3180 81° East 504 580 35,000  Level FlightAware ADS-B
Mon 04:02:43 PM 41.7110 -109.2220 80° East 503 579 35,000  Level FlightAware ADS-B
Mon 04:03:17 PM 41.7230 -109.1180 81° East 503 579 35,000  Level FlightAware ADS-B
Mon 04:04:02 PM 41.7390 -108.9960 80° East 502 578 35,000  Level FlightAware ADS-B
Mon 04:04:37 PM 41.7520 -108.8720 82° East 501 577 35,000  Level FlightAware ADS-B
Mon 04:05:13 PM 41.7650 -108.7620 81° East 499 574 35,000  Level FlightAware ADS-B
Mon 04:05:45 PM 41.7760 -108.6630 81° East 499 574 35,000  Level FlightAware ADS-B
Mon 04:06:19 PM 41.7880 -108.5620 81° East 499 574 35,000  Level FlightAware ADS-B
Mon 04:06:58 PM 41.8020 -108.4430 81° East 499 574 35,000 500 Level FlightAware ADS-B
Mon 04:07:31 PM 41.8130 -108.3430 82° East 498 573 35,600 1,238 Climbing FlightAware ADS-B
Mon 04:08:01 PM 41.8230 -108.2480 82° East 492 566 36,300 1,217 Climbing FlightAware ADS-B
Mon 04:08:40 PM 41.8360 -108.1370 81° East 490 564 37,000 560 Climbing FlightAware ADS-B
Mon 04:09:16 PM 41.8480 -108.0260 82° East 495 570 37,000  Level FlightAware ADS-B
Mon 04:09:53 PM 41.8600 -107.9130 82° East 498 573 37,000  Level FlightAware ADS-B
Mon 04:10:25 PM 41.8710 -107.8160 81° East 503 579 37,000  Level FlightAware ADS-B
Mon 04:11:05 PM 41.8830 -107.7060 82° East 503 579 37,000  Level FlightAware ADS-B
Mon 04:11:51 PM 41.8970 -107.5860 81° East 503 579 37,000  Level FlightAware ADS-B
Mon 04:12:27 PM 41.9080 -107.4910 81° East 503 579 37,000  Level FlightAware ADS-B
Mon 04:13:03 PM 41.9190 -107.3970 81° East 503 579 37,000  Level FlightAware ADS-B
Mon 04:13:39 PM 41.9310 -107.3020 80° East 503 579 37,000  Level FlightAware ADS-B
Mon 04:14:15 PM 41.9420 -107.2080 81° East 503 579 37,000  Level FlightAware ADS-B
Mon 04:14:52 PM 41.9530 -107.1100 81° East 503 579 37,000  Level FlightAware ADS-B
Mon 04:15:29 PM 41.9650 -107.0130 81° East 503 579 37,000  Level FlightAware ADS-B
Mon 04:16:05 PM 41.9760 -106.9190 81° East 503 579 37,000  Level FlightAware ADS-B
Mon 04:16:41 PM 41.9870 -106.8240 81° East 503 579 37,000  Level FlightAware ADS-B
Mon 04:17:17 PM 41.9980 -106.7290 81° East 503 579 37,000  Level FlightAware ADS-B
Mon 04:17:52 PM 42.0090 -106.4470 87° East 489 563 37,000  Level FlightAware ADS-B
Mon 04:18:39 PM 42.0220 -106.3040 83° East 489 563 37,000  Level FlightAware ADS-B
Mon 04:19:11 PM 42.0310 -106.2060 83° East 490 564 37,000  Level FlightAware ADS-B
Mon 04:19:51 PM 42.0420 -106.0880 83° East 490 564 37,000  Level FlightAware ADS-B
Mon 04:20:30 PM 42.0530 -105.9860 82° East 490 564 37,000  Level FlightAware ADS-B
Mon 04:21:05 PM 42.0630 -105.8630 84° East 490 564 37,000  Level FlightAware ADS-B
Mon 04:21:43 PM 42.0720 -105.7590 83° East 491 565 37,000  Level FlightAware ADS-B
Mon 04:22:19 PM 42.0800 -105.6660 83° East 491 565 37,000  Level FlightAware ADS-B
Mon 04:22:53 PM 42.0880 -105.5790 83° East 491 565 37,000  Level FlightAware ADS-B
Mon 04:23:28 PM 42.1010 -105.4280 83° East 490 564 37,000  Level FlightAware ADS-B
Mon 04:23:58 PM 42.1080 -105.3360 84° East 491 565 37,000  Level FlightAware ADS-B
Mon 04:24:33 PM 42.1170 -105.2320 83° East 492 566 37,000  Level FlightAware ADS-B
Mon 04:25:03 PM 42.1240 -105.1450 84° East 492 566 37,000  Level FlightAware ADS-B
Mon 04:25:41 PM 42.1330 -105.0460 83° East 492 566 37,000  Level FlightAware ADS-B
Mon 04:26:29 PM 42.1450 -104.9220 83° East 492 566 37,000  Level FlightAware ADS-B
Mon 04:27:09 PM 42.1540 -104.8180 83° East 492 566 37,000  Level FlightAware ADS-B
Mon 04:27:46 PM 42.1630 -104.7230 83° East 492 566 37,000  Level FlightAware ADS-B
Mon 04:28:15 PM 42.1710 -104.5570 86° East 492 566 37,000  Level FlightAware ADS-B
Mon 04:28:55 PM 42.1790 -104.4530 84° East 492 566 37,000  Level FlightAware ADS-B
Mon 04:29:33 PM 42.1870 -104.3540 84° East 492 566 37,000  Level FlightAware ADS-B
Mon 04:30:09 PM 42.1940 -104.2610 84° East 492 566 37,000  Level FlightAware ADS-B
Mon 04:30:55 PM 42.2040 -104.1420 83° East 492 566 37,000  Level FlightAware ADS-B
Mon 04:31:32 PM 42.2110 -104.0450 84° East 492 566 37,000  Level FlightAware ADS-B
Mon 04:32:09 PM 42.2180 -103.9490 84° East 492 566 37,000  Level FlightAware ADS-B
Mon 04:32:45 PM 42.2260 -103.8560 83° East 492 566 37,000  Level FlightAware ADS-B
Mon 04:33:21 PM 42.2330 -103.7620 84° East 492 566 37,000  Level FlightAware ADS-B
Mon 04:33:57 PM 42.2400 -103.6690 84° East 492 566 37,000  Level FlightAware ADS-B
Mon 04:34:34 PM 42.2480 -103.5720 84° East 492 566 37,000  Level FlightAware ADS-B
Mon 04:35:09 PM 42.2550 -103.4810 84° East 492 566 37,000  Level FlightAware ADS-B
Mon 04:35:45 PM 42.2620 -103.3880 84° East 492 566 37,000  Level FlightAware ADS-B
Mon 04:36:22 PM 42.2690 -103.2920 84° East 492 566 37,000  Level FlightAware ADS-B
Mon 04:36:58 PM 42.2770 -103.1980 83° East 492 566 37,000  Level FlightAware ADS-B
Mon 04:37:34 PM 42.2840 -103.1040 84° East 492 566 37,000  Level FlightAware ADS-B
Mon 04:38:11 PM 42.2910 -103.0080 84° East 492 566 37,000  Level FlightAware ADS-B
Mon 04:39:40 PM 42.3100 -102.5139 84° East 484 557 37,000  Level Denver Center
Mon 04:40:42 PM 42.3214 -102.3111 86° East 485 558 37,000  Level Denver Center
Mon 04:41:43 PM 42.3314 -102.1367 86° East 486 559 37,000  Level Denver Center
Mon 04:42:45 PM 42.3439 -101.9333 85° East 487 560 37,000  Level Denver Center
Mon 04:43:47 PM 42.3528 -101.7456 86° East 488 562 37,000  Level Denver Center
Mon 04:44:49 PM 42.3617 -101.5711 86° East 487 560 37,000  Level Denver Center
Mon 04:45:51 PM 42.3714 -101.3678 86° East 486 559 37,000  Level Denver Center
Mon 04:46:53 PM 42.3806 -101.1925 86° East 486 559 37,000  Level Denver Center
Mon 04:47:55 PM 42.3889 -100.9925 87° East 478 550 37,000  Level Denver Center
Mon 04:48:57 PM 42.3969 -100.8178 86° East 482 555 37,000  Level Denver Center
Mon 04:49:58 PM 42.4039 -100.6431 87° East 485 558 37,000  Level Denver Center
Mon 04:55:22 PM 42.4407 -99.6939 87° East 485 558 37,000  Level FlightAware ADS-B
Mon 04:56:32 PM 42.4495 -99.4259 87° East 485 558 37,000  Level FlightAware ADS-B
Mon 04:57:02 PM 42.4524 -99.3327 88° East 484 557 37,000  Level FlightAware ADS-B
Mon 04:58:03 PM 42.4583 -99.1625 88° East 484 557 37,000  Level Minneapolis Center
Mon 04:59:05 PM 42.4642 -98.9800 87° East 483 556 37,000  Level Minneapolis Center
Mon 05:05:00 PM 42.5079 -97.9034 87° East 477 549 37,000  Level FlightAware ADS-B
Mon 05:07:57 PM 42.5302 -97.3766 87° East 476 548 37,000  Level FlightAware ADS-B
Mon 05:09:24 PM 42.5400 -97.1180 87° East 37,000  Level FlightAware ADS-B
Mon 05:09:35 PM 42.5414 -97.0847 87° East 477 549 37,000  Level FlightAware ADS-B
Mon 05:09:56 PM 42.5434 -97.0309 87° East 478 550 37,000  Level FlightAware ADS-B
Mon 05:10:33 PM 42.5470 -96.9160 88° East 477 549 37,000  Level FlightAware ADS-B
Mon 05:10:59 PM 42.5467 -96.9406 269° West 478 550 37,000  Level FlightAware ADS-B
Mon 05:11:43 PM 42.5550 -96.7060 87° East 478 550 37,000  Level FlightAware ADS-B
Mon 05:12:07 PM 42.5513 -96.8092 267° West 479 551 37,000  Level FlightAware ADS-B
Mon 05:12:55 PM 42.5603 -96.5406 87° East 479 551 37,000  Level FlightAware ADS-B
Mon 05:13:30 PM 42.5650 -96.3840 88° East 479 551 37,000  Level FlightAware ADS-B
Mon 05:13:55 PM 42.5644 -96.4108 268° West 479 551 37,000  Level FlightAware ADS-B
Mon 05:14:38 PM 42.5720 -96.1800 87° East 479 551 37,000  Level FlightAware ADS-B
Mon 05:15:14 PM 42.5750 -96.0730 88° East 480 552 37,000  Level FlightAware ADS-B
Mon 05:15:41 PM 42.5768 -95.9918 88° East 480 552 37,000  Level FlightAware ADS-B
Mon 05:16:31 PM 42.5810 -95.8420 88° East 481 554 37,000  Level FlightAware ADS-B
Mon 05:17:14 PM 42.5840 -95.7090 88° East 482 555 37,000  Level FlightAware ADS-B
Mon 05:17:21 PM 42.5847 -95.6923 87° East 482 555 37,000  Level FlightAware ADS-B
Mon 05:18:22 PM 42.5890 -95.5170 88° East 482 555 37,000  Level FlightAware ADS-B
Mon 05:18:59 PM 42.5920 -95.3930 88° East 483 556 37,000  Level FlightAware ADS-B
Mon 05:19:32 PM 42.5940 -95.2950 88° East 483 556 37,000  Level FlightAware ADS-B
Mon 05:20:07 PM 42.5960 -95.1890 88° East 483 556 37,000  Level FlightAware ADS-B
Mon 05:20:20 PM 42.5970 -95.1487 88° East 483 556 37,000  Level FlightAware ADS-B
Mon 05:20:26 PM 42.5971 -95.1456 88° East 483 556 37,000  Level FlightAware ADS-B (LPVM)
Mon 05:21:17 PM 42.6000 -94.9780 89° East 484 557 37,000  Level FlightAware ADS-B
Mon 05:21:37 PM 42.5982 -95.0915 269° West 484 557 37,000  Level FlightAware ADS-B
Mon 05:22:29 PM 42.6040 -94.7600 89° East 484 557 37,000  Level FlightAware ADS-B
Mon 05:23:01 PM 42.6060 -94.6630 88° East 485 558 37,000  Level FlightAware ADS-B
Mon 05:23:15 PM 42.6065 -94.6225 89° East 485 558 37,000  Level FlightAware ADS-B
Mon 05:24:04 PM 42.6087 -94.4698 89° East 486 559 37,000  Level FlightAware ADS-B (LPVM)
Mon 05:24:50 PM 42.6110 -94.3320 89° East 486 559 37,000  Level FlightAware ADS-B
Mon 05:24:58 PM 42.6110 -94.3053 90° East 486 559 37,000  Level FlightAware ADS-B (LPVM)
Mon 05:25:47 PM 42.6124 -94.1558 89° East 487 560 37,000  Level FlightAware ADS-B (LPVM)
Mon 05:26:37 PM 42.6134 -94.0200 89° East 488 562 37,000  Level FlightAware ADS-B (LPVM)
Mon 05:27:09 PM 42.6140 -93.9070 90° East 489 563 37,000  Level FlightAware ADS-B
Mon 05:27:24 PM 42.6145 -93.8604 89° East 488 562 37,000  Level FlightAware ADS-B (LPVM)
Mon 05:28:01 PM 42.6152 -93.7472 89° East 489 563 37,000  Level FlightAware ADS-B (LPVM)
Mon 05:28:54 PM 42.6160 -93.5930 90° East 490 564 37,000  Level FlightAware ADS-B
Mon 05:29:21 PM 42.6162 -93.5027 90° East 490 564 37,000  Level FlightAware ADS-B (LPVM)
Mon 05:30:02 PM 42.6160 -93.3790 90° East 490 564 37,000  Level FlightAware ADS-B
Mon 05:30:38 PM 42.6170 -93.2670 89° East 490 564 37,000  Level FlightAware ADS-B
Mon 05:31:16 PM 42.6170 -93.1520 90° East 491 565 37,000  Level FlightAware ADS-B
Mon 05:31:52 PM 42.6170 -93.0400 90° East 492 566 37,000  Level FlightAware ADS-B
Mon 05:32:29 PM 42.6160 -92.9240 91° East 493 567 37,000  Level FlightAware ADS-B
Mon 05:33:05 PM 42.6160 -92.8140 90° East 494 568 37,000  Level FlightAware ADS-B
Mon 05:33:41 PM 42.6160 -92.7010 90° East 494 568 37,000  Level FlightAware ADS-B
Mon 05:34:14 PM 42.6150 -92.6030 91° East 494 568 37,000  Level FlightAware ADS-B
Mon 05:34:48 PM 42.6149 -92.5494 90° East 493 567 37,000  Level FlightAware ADS-B (LPVM)
Mon 05:35:21 PM 42.6140 -92.3960 90° East 493 567 37,000  Level FlightAware ADS-B
Mon 05:35:39 PM 42.6138 -92.3515 90° East 494 568 37,000  Level FlightAware ADS-B (LPVM)
Mon 05:36:36 PM 42.6120 -92.1600 91° East 495 570 37,000  Level FlightAware ADS-B
Mon 05:36:47 PM 42.6120 -92.1270 90° East 495 570 37,000  Level FlightAware ADS-B (LPVM)
Mon 05:37:39 PM 42.6104 -91.9655 91° East 496 571 37,000  Level FlightAware ADS-B (LPVM)
Mon 05:38:10 PM 42.6096 -91.8960 91° East 496 571 37,000  Level FlightAware ADS-B (LPVM)
Mon 05:38:48 PM 42.6080 -91.7520 91° East 497 572 37,000  Level FlightAware ADS-B
Mon 05:39:00 PM 42.6074 -91.7136 91° East 497 572 37,000  Level FlightAware ADS-B (LPVM)
Mon 05:39:51 PM 42.6054 -91.5578 91° East 497 572 37,000  Level FlightAware ADS-B (LPVM)
Mon 05:40:34 PM 42.6030 -91.4250 91° East 495 570 37,000  Level FlightAware ADS-B
Mon 05:40:41 PM 42.6031 -91.4001 90° East 495 570 37,000  Level FlightAware ADS-B (LPVM)
Mon 05:41:11 PM 42.6020 -91.3100 91° East 495 570 37,000  Level FlightAware ADS-B
Mon 05:41:42 PM 42.6000 -91.2150 92° East 494 568 37,000  Level FlightAware ADS-B
Mon 05:41:52 PM 42.5998 -91.1987 91° East 494 568 37,000  Level FlightAware ADS-B (LPVM)
Mon 05:42:31 PM 42.5974 -91.0620 91° East 495 570 37,000  Level FlightAware ADS-B (LPVM)
Mon 05:43:11 PM 42.5950 -90.9365 91° East 495 570 37,000  Level FlightAware ADS-B (LPVM)
Mon 05:44:03 PM 42.5917 -90.7761 92° East 497 572 37,000  Level FlightAware ADS-B (LPVM)
Mon 05:44:40 PM 42.5890 -90.6600 92° East 498 573 37,000  Level FlightAware ADS-B
Mon 05:45:13 PM 42.5870 -90.5580 91° East 498 573 37,000  Level FlightAware ADS-B
Mon 05:45:48 PM 42.5850 -90.4550 91° East 499 574 37,000  Level FlightAware ADS-B
Mon 05:46:25 PM 42.5820 -90.3420 92° East 499 574 37,000  Level FlightAware ADS-B
Mon 05:46:58 PM 42.5790 -90.2300 92° East 500 575 37,000  Level FlightAware ADS-B
Mon 05:47:33 PM 42.5760 -90.1210 92° East 501 577 37,000  Level FlightAware ADS-B
Mon 05:48:09 PM 42.5730 -90.0140 92° East 501 577 37,000  Level FlightAware ADS-B
Mon 05:48:42 PM 42.5700 -89.9100 92° East 502 578 37,000  Level FlightAware ADS-B
Mon 05:49:17 PM 42.5670 -89.7970 92° East 503 579 37,000  Level FlightAware ADS-B
Mon 05:49:54 PM 42.5640 -89.6790 92° East 504 580 37,000  Level FlightAware ADS-B
Mon 05:50:31 PM 42.5600 -89.5710 93° East 504 580 37,000  Level FlightAware ADS-B
Mon 05:51:04 PM 42.5570 -89.4630 92° East 504 580 37,000  Level FlightAware ADS-B
Mon 05:51:39 PM 42.5530 -89.3510 93° East 504 580 37,000  Level FlightAware ADS-B
Mon 05:52:15 PM 42.5490 -89.2390 93° East 504 580 37,000  Level FlightAware ADS-B
Mon 05:52:48 PM 42.5460 -89.1310 92° East 503 579 37,000  Level FlightAware ADS-B
Mon 05:53:24 PM 42.5410 -89.0150 93° East 502 578 37,000  Level FlightAware ADS-B
Mon 05:54:01 PM 42.5370 -88.9000 93° East 501 577 37,000  Level FlightAware ADS-B
Mon 05:54:33 PM 42.5340 -88.8060 92° East 501 577 37,000  Level FlightAware ADS-B
Mon 05:55:09 PM 42.5290 -88.6890 93° East 501 577 37,000  Level FlightAware ADS-B
Mon 05:55:44 PM 42.5250 -88.5810 93° East 500 575 37,000  Level FlightAware ADS-B
Mon 05:56:16 PM 42.5210 -88.4780 93° East 499 574 37,000  Level FlightAware ADS-B
Mon 05:56:53 PM 42.5160 -88.3680 93° East 497 572 37,000  Level FlightAware ADS-B
Mon 05:57:29 PM 42.5110 -88.2510 93° East 495 570 37,000  Level FlightAware ADS-B
Mon 05:58:05 PM 42.5060 -88.1420 94° East 495 570 37,000  Level FlightAware ADS-B
Mon 05:58:41 PM 42.5020 -88.0290 93° East 495 570 37,000  Level FlightAware ADS-B
Mon 05:59:13 PM 42.5000 -87.9320 92° East 494 568 37,000  Level FlightAware ADS-B
Mon 05:59:48 PM 42.5000 -87.8290 90° East 495 570 37,000  Level FlightAware ADS-B
Mon 06:00:23 PM 42.5000 -87.7230 90° East 496 571 37,000  Level FlightAware ADS-B
Mon 06:00:55 PM 42.4990 -87.6160 91° East 497 572 37,000  Level FlightAware ADS-B
Mon 06:01:41 PM 42.4990 -87.4770 90° East 498 573 37,000  Level FlightAware ADS-B
Mon 06:02:15 PM 42.4990 -87.3720 90° East 498 573 37,000  Level FlightAware ADS-B
Mon 06:02:49 PM 42.4980 -87.2660 91° East 499 574 37,000  Level FlightAware ADS-B
Mon 06:03:27 PM 42.4970 -87.1470 91° East 500 575 37,000  Level FlightAware ADS-B
Mon 06:03:55 PM 42.4960 -87.0530 91° East 501 577 37,000  Level FlightAware ADS-B
Mon 06:04:36 PM 42.4950 -86.9310 91° East 503 579 37,000  Level FlightAware ADS-B
Mon 06:05:11 PM 42.4940 -86.8200 91° East 504 580 37,000  Level FlightAware ADS-B
Mon 06:05:45 PM 42.4930 -86.7100 91° East 505 581 37,000  Level FlightAware ADS-B
Mon 06:06:21 PM 42.4920 -86.6020 91° East 506 582 37,000  Level FlightAware ADS-B
Mon 06:06:53 PM 42.4910 -86.4980 91° East 506 582 37,000  Level FlightAware ADS-B
Mon 06:07:27 PM 42.4890 -86.3870 91° East 507 583 37,000  Level FlightAware ADS-B
Mon 06:08:07 PM 42.4870 -86.2590 91° East 508 585 37,000  Level FlightAware ADS-B
Mon 06:08:41 PM 42.4860 -86.1560 91° East 508 585 37,000  Level FlightAware ADS-B
Mon 06:09:15 PM 42.4840 -86.0450 91° East 509 586 37,000  Level FlightAware ADS-B
Mon 06:09:50 PM 42.4820 -85.9320 91° East 510 587 37,000  Level FlightAware ADS-B
Mon 06:10:27 PM 42.4800 -85.8190 91° East 512 589 37,000  Level FlightAware ADS-B
Mon 06:11:02 PM 42.4780 -85.7080 91° East 514 592 37,000  Level FlightAware ADS-B
Mon 06:11:41 PM 42.4750 -85.5760 92° East 515 593 37,000  Level FlightAware ADS-B
Mon 06:12:18 PM 42.4730 -85.4590 91° East 518 596 37,000  Level FlightAware ADS-B
Mon 06:12:53 PM 42.4700 -85.3440 92° East 518 596 37,000  Level FlightAware ADS-B
Mon 06:13:27 PM 42.4670 -85.2340 92° East 518 596 37,000  Level FlightAware ADS-B
Mon 06:14:02 PM 42.4650 -85.1280 91° East 519 597 37,000  Level FlightAware ADS-B
Mon 06:14:34 PM 42.4620 -85.0230 92° East 519 597 37,000  Level FlightAware ADS-B
Mon 06:15:13 PM 42.4590 -84.8920 92° East 519 597 37,000  Level FlightAware ADS-B
Mon 06:15:45 PM 42.4560 -84.7880 92° East 519 597 37,000  Level FlightAware ADS-B
Mon 06:16:22 PM 42.4520 -84.6650 92° East 518 596 37,000  Level FlightAware ADS-B
Mon 06:16:58 PM 42.4490 -84.5550 92° East 518 596 37,000  Level FlightAware ADS-B
Mon 06:17:31 PM 42.4460 -84.4450 92° East 518 596 37,000  Level FlightAware ADS-B
Mon 06:18:07 PM 42.4420 -84.3340 93° East 517 595 37,000  Level FlightAware ADS-B
Mon 06:18:49 PM 42.4380 -84.2000 92° East 518 596 37,000  Level FlightAware ADS-B
Mon 06:19:26 PM 42.4340 -84.0750 92° East 518 596 37,000  Level FlightAware ADS-B
Mon 06:20:01 PM 42.4300 -83.9660 93° East 518 596 37,000  Level FlightAware ADS-B
Mon 06:20:33 PM 42.4270 -83.8630 92° East 517 595 37,000  Level FlightAware ADS-B
Mon 06:21:11 PM 42.4220 -83.7440 93° East 516 594 37,000  Level FlightAware ADS-B
Mon 06:21:43 PM 42.4180 -83.6300 93° East 515 593 37,000  Level FlightAware ADS-B
Mon 06:22:21 PM 42.4130 -83.5090 93° East 515 593 37,000  Level FlightAware ADS-B
Mon 06:22:53 PM 42.4090 -83.4050 93° East 514 592 37,000  Level FlightAware ADS-B
Mon 06:23:30 PM 42.4050 -83.2910 93° East 515 593 37,000  Level FlightAware ADS-B
Mon 06:24:05 PM 42.4000 -83.1780 93° East 514 592 37,000  Level FlightAware ADS-B
Mon 06:24:37 PM 42.3950 -83.0730 94° East 514 592 37,000  Level FlightAware ADS-B
Mon 06:25:13 PM 42.3900 -82.9570 93° East 513 590 37,000  Level FlightAware ADS-B
Mon 06:25:51 PM 42.3850 -82.8380 93° East 511 588 37,000  Level FlightAware ADS-B
Mon 06:26:23 PM 42.3810 -82.7370 93° East 511 588 37,000  Level FlightAware ADS-B
Mon 06:26:59 PM 42.3760 -82.6190 93° East 512 589 37,000  Level FlightAware ADS-B
Mon 06:27:35 PM 42.3710 -82.5040 93° East 512 589 37,000  Level FlightAware ADS-B
Mon 06:28:11 PM 42.3670 -82.3960 93° East 512 589 37,000  Level FlightAware ADS-B
Mon 06:28:41 PM 42.3630 -82.2990 93° East 511 588 37,000  Level FlightAware ADS-B
Mon 06:29:18 PM 42.3580 -82.1760 93° East 509 586 37,000  Level FlightAware ADS-B
Mon 06:29:53 PM 42.3530 -82.0660 93° East 508 585 37,000  Level FlightAware ADS-B
Mon 06:30:32 PM 42.3480 -81.9440 93° East 507 583 37,000  Level FlightAware ADS-B
Mon 06:31:03 PM 42.3440 -81.8450 93° East 506 582 37,000  Level FlightAware ADS-B
Mon 06:31:39 PM 42.3380 -81.7310 94° East 505 581 37,000  Level FlightAware ADS-B
Mon 06:32:16 PM 42.3330 -81.6150 93° East 504 580 37,000  Level FlightAware ADS-B
Mon 06:32:49 PM 42.3280 -81.5120 94° East 503 579 37,000  Level FlightAware ADS-B
Mon 06:33:24 PM 42.3230 -81.4020 93° East 503 579 37,000  Level FlightAware ADS-B
Mon 06:34:00 PM 42.3170 -81.2900 94° East 502 578 37,000  Level FlightAware ADS-B
Mon 06:34:32 PM 42.3120 -81.1890 94° East 502 578 37,000  Level FlightAware ADS-B
Mon 06:35:08 PM 42.3070 -81.0780 93° East 501 577 37,000  Level FlightAware ADS-B
Mon 06:35:44 PM 42.3010 -80.9630 94° East 501 577 37,000  Level FlightAware ADS-B
Mon 06:36:20 PM 42.2950 -80.8520 94° East 502 578 37,000  Level FlightAware ADS-B
Mon 06:36:57 PM 42.2880 -80.7370 95° East 503 579 37,000  Level FlightAware ADS-B
Mon 06:37:28 PM 42.2830 -80.6410 94° East 503 579 37,000  Level FlightAware ADS-B
Mon 06:38:05 PM 42.2770 -80.5330 94° East 504 580 37,000  Level FlightAware ADS-B
Mon 06:38:42 PM 42.2700 -80.4090 94° East 506 582 37,000  Level FlightAware ADS-B
Mon 06:39:14 PM 42.2650 -80.3130 94° East 507 583 37,000  Level FlightAware ADS-B
Mon 06:39:48 PM 42.2580 -80.2000 95° East 509 586 37,000  Level FlightAware ADS-B
Mon 06:40:26 PM 42.2510 -80.0880 95° East 509 586 37,000  Level FlightAware ADS-B
Mon 06:41:01 PM 42.2450 -79.9790 94° East 509 586 37,000  Level FlightAware ADS-B
Mon 06:41:36 PM 42.2370 -79.8630 95° East 511 588 37,000  Level FlightAware ADS-B
Mon 06:42:08 PM 42.2310 -79.7640 95° East 511 588 37,000  Level FlightAware ADS-B
Mon 06:42:45 PM 42.2230 -79.6410 95° East 511 588 37,000  Level FlightAware ADS-B
Mon 06:43:21 PM 42.2160 -79.5260 95° East 511 588 37,000  Level FlightAware ADS-B
Mon 06:43:56 PM 42.2080 -79.4130 95° East 513 590 37,000  Level FlightAware ADS-B
Mon 06:44:28 PM 42.2020 -79.3120 95° East 513 590 37,000  Level FlightAware ADS-B
Mon 06:45:05 PM 42.1930 -79.1930 96° East 514 592 37,000  Level FlightAware ADS-B
Mon 06:45:40 PM 42.1790 -79.0860 100° East 506 582 37,000  Level FlightAware ADS-B
Mon 06:46:16 PM 42.1540 -78.9790 107° East 503 579 37,000  Level FlightAware ADS-B
Mon 06:46:48 PM 42.1290 -78.8820 109° East 502 578 37,000  Level FlightAware ADS-B
Mon 06:47:26 PM 42.1010 -78.7720 109° East 501 577 37,000  Level FlightAware ADS-B
Mon 06:48:02 PM 42.0740 -78.6650 109° East 501 577 37,000  Level FlightAware ADS-B
Mon 06:48:36 PM 42.0490 -78.5640 108° East 500 575 37,000  Level FlightAware ADS-B
Mon 06:49:10 PM 42.0240 -78.4660 109° East 498 573 37,000  Level FlightAware ADS-B
Mon 06:49:45 PM 41.9980 -78.3640 109° East 498 573 37,000  Level FlightAware ADS-B
Mon 06:50:21 PM 41.9700 -78.2580 110° East 497 572 37,000  Level FlightAware ADS-B
Mon 06:50:53 PM 41.9470 -78.1670 109° East 493 567 37,000  Level FlightAware ADS-B
Mon 06:51:29 PM 41.9200 -78.0630 109° East 482 555 37,000  Level FlightAware ADS-B
Mon 06:52:05 PM 41.8940 -77.9640 109° East 471 542 37,000  Level FlightAware ADS-B
Mon 06:52:41 PM 41.8670 -77.8620 110° East 470 541 37,000  Level FlightAware ADS-B
Mon 06:53:15 PM 41.8430 -77.7710 109° East 470 541 37,000  Level FlightAware ADS-B
Mon 06:53:49 PM 41.8190 -77.6780 109° East 470 541 37,000  Level FlightAware ADS-B
Mon 06:54:26 PM 41.7930 -77.5790 109° East 469 540 37,000  Level FlightAware ADS-B
Mon 06:54:59 PM 41.7680 -77.4850 110° East 469 540 37,000  Level FlightAware ADS-B
Mon 06:55:35 PM 41.7420 -77.3880 110° East 469 540 37,000  Level FlightAware ADS-B
Mon 06:56:11 PM 41.7150 -77.2880 110° East 469 540 37,000  Level FlightAware ADS-B
Mon 06:56:43 PM 41.6920 -77.2020 110° East 468 539 37,000  Level FlightAware ADS-B
Mon 06:57:26 PM 41.6620 -77.0900 110° East 467 537 37,000  Level FlightAware ADS-B
Mon 06:58:01 PM 41.6390 -77.0050 110° East 464 534 37,000  Level FlightAware ADS-B
Mon 06:58:36 PM 41.6130 -76.9080 110° East 458 527 37,000  Level FlightAware ADS-B
Mon 06:59:11 PM 41.5860 -76.8100 110° East 453 521 37,000  Level FlightAware ADS-B
Mon 06:59:47 PM 41.5600 -76.7140 110° East 449 517 37,000  Level FlightAware ADS-B
Mon 07:00:27 PM 41.5300 -76.6080 111° Southeast 446 513 37,000  Level FlightAware ADS-B
Mon 07:01:03 PM 41.5050 -76.5140 110° East 444 511 37,000  Level FlightAware ADS-B
Mon 07:01:41 PM 41.4780 -76.4190 111° Southeast 443 510 37,000  Level FlightAware ADS-B
Mon 07:02:08 PM 41.4610 -76.3570 110° East 441 507 37,000  Level FlightAware ADS-B
Mon 07:02:50 PM 41.4290 -76.2420 110° East 444 511 37,000  Level FlightAware ADS-B
Mon 07:03:23 PM 41.4060 -76.1590 110° East 445 512 37,000 -86 Level FlightAware ADS-B
Mon 07:04:00 PM 41.3790 -76.0630 111° Southeast 447 514 36,900 -904 Descending FlightAware ADS-B
Mon 07:04:36 PM 41.3520 -75.9690 111° Southeast 458 527 35,900 -2,239 Descending FlightAware ADS-B
Mon 07:05:07 PM 41.3290 -75.8880 111° Southeast 468 539 34,400 -3,000 Descending FlightAware ADS-B
Mon 07:05:44 PM 41.3000 -75.7860 111° Southeast 472 543 32,500 -3,043 Descending FlightAware ADS-B
Mon 07:06:16 PM 41.2750 -75.6990 111° Southeast 469 540 30,900 -3,500 Descending FlightAware ADS-B
Mon 07:06:56 PM 41.2410 -75.5940 113° Southeast 476 548 28,300 -3,852 Descending FlightAware ADS-B
Mon 07:07:37 PM 41.2040 -75.4810 113° Southeast 482 555 25,700 -3,452 Descending FlightAware ADS-B
Mon 07:08:09 PM 41.1750 -75.3950 114° Southeast 480 552 24,100 -2,229 Descending FlightAware ADS-B
Mon 07:08:47 PM 41.1410 -75.2950 114° Southeast 476 548 23,100 -943 Descending FlightAware ADS-B
Mon 07:09:19 PM 41.1140 -75.2140 114° Southeast 475 547 23,000 -90 Descending FlightAware ADS-B
Mon 07:09:54 PM 41.0810 -75.1190 115° Southeast 481 554 23,000  Level FlightAware ADS-B
Mon 07:10:28 PM 41.0520 -75.0310 114° Southeast 478 550 23,000  Level FlightAware ADS-B
Mon 07:11:20 PM 41.0080 -74.9030 114° Southeast 457 526 23,000  Level FlightAware ADS-B
Mon 07:11:46 PM 40.9920 -74.8290 106° East 436 502 23,000 -857 Level FlightAware ADS-B
Mon 07:12:23 PM 40.9800 -74.7300 99° East 434 499 22,100 -1,437 Descending FlightAware ADS-B
Mon 07:12:57 PM 40.9710 -74.6400 98° East 440 506 21,300 -1,099 Descending FlightAware ADS-B
Mon 07:13:34 PM 40.9600 -74.5430 99° East 436 502 20,800 -882 Descending FlightAware ADS-B
Mon 07:14:05 PM 40.9520 -74.4610 97° East 422 486 20,300 -1,457 Descending FlightAware ADS-B
Mon 07:14:44 PM 40.9400 -74.3620 99° East 444 511 19,100 -1,054 Descending FlightAware ADS-B
Mon 07:15:19 PM 40.9300 -74.2660 98° East 432 497 19,000 -107 Descending FlightAware ADS-B
Mon 07:15:40 PM 40.9180 -74.2140 107° East 407 468 19,000  Level FlightAware ADS-B
Mon 07:15:57 PM 40.9030 -74.1790 120° Southeast 388 447 19,000 -171 Level FlightAware ADS-B
Mon 07:16:15 PM 40.8820 -74.1470 131° Southeast 372 428 18,900 -1,179 Descending FlightAware ADS-B
Mon 07:16:53 PM 40.9288 -74.2605 299° West 430 495 17,900 -1,881 Descending FlightAware ADS-B (KSNC)
Mon 07:17:22 PM 40.7961 -74.0455 129° Southeast 376 433 16,800 -2,233 Descending FlightAware ADS-B
Mon 07:17:36 PM 40.7750 -74.0284 148° Southeast 366 421 16,300 -1,655 Descending FlightAware ADS-B
Mon 07:17:51 PM 40.7520 -74.0155 157° South 360 414 16,000 -329 Descending FlightAware ADS-B
Mon 07:18:49 PM 40.6629 -73.9691 158° South 359 413 15,900 -766 Descending FlightAware ADS-B (KSNC)
Mon 07:19:25 PM 40.6090 -73.9410 158° South 349 402 14,800 -2,364 Descending FlightAware ADS-B
Mon 07:19:55 PM 40.5650 -73.9190 159° South 341 392 13,300 -2,597 Descending FlightAware ADS-B
Mon 07:20:32 PM 40.5120 -73.8920 159° South 321 369 11,900 -2,040 Descending FlightAware ADS-B
Mon 07:20:45 PM 40.4940 -73.8780 149° Southeast 320 368 11,600 -1,034 Descending FlightAware ADS-B
Mon 07:21:01 PM 40.4790 -73.8560 132° Southeast 321 369 11,400 -1,469 Descending FlightAware ADS-B
Mon 07:21:34 PM 40.4560 -73.8020 119° Southeast 314 361 10,400 -1,800 Descending FlightAware ADS-B
Mon 07:21:51 PM 40.4440 -73.7710 117° Southeast 309 356 9,900 -1,750 Descending FlightAware ADS-B
Mon 07:21:58 PM 40.4410 -73.7600 110° East 314 361 9,700 -1,846 Descending FlightAware ADS-B
Mon 07:22:04 PM 40.4390 -73.7490 103° East 319 367 9,500 -1,714 Descending FlightAware ADS-B
Mon 07:22:12 PM 40.4390 -73.7370 90° East 324 373 9,300 -1,929 Descending FlightAware ADS-B
Mon 07:22:32 PM 40.4450 -73.6970 79° East 328 377 8,600 -2,045 Descending FlightAware ADS-B
Mon 07:22:56 PM 40.4570 -73.6500 71° East 324 373 7,800 -1,953 Descending FlightAware ADS-B
Mon 07:23:15 PM 40.4660 -73.6140 72° East 321 369 7,200 -2,000 Descending FlightAware ADS-B
Mon 07:23:35 PM 40.4810 -73.5800 60° Northeast 325 374 6,500 -2,077 Descending FlightAware ADS-B
Mon 07:23:41 PM 40.4880 -73.5720 41° Northeast 323 372 6,300 -1,714 Descending FlightAware ADS-B
Mon 07:24:03 PM 40.5140 -73.5460 37° Northeast 314 361 5,700 -1,227 Descending FlightAware ADS-B
Mon 07:24:25 PM 40.5390 -73.5210 37° Northeast 297 342 5,400 -1,000 Descending FlightAware ADS-B
Mon 07:24:45 PM 40.5600 -73.5000 37° Northeast 287 330 5,000 -1,350 Descending FlightAware ADS-B
Mon 07:25:05 PM 40.5810 -73.4790 37° Northeast 281 323 4,500 -1,588 Descending FlightAware ADS-B
Mon 07:25:19 PM 40.5960 -73.4640 37° Northeast 279 321 4,100 -1,636 Descending FlightAware ADS-B
Mon 07:25:27 PM 40.6050 -73.4570 31° Northeast 274 315 3,900 -1,500 Descending FlightAware ADS-B
Mon 07:25:35 PM 40.6140 -73.4530 19° North 269 310 3,700 -1,500 Descending FlightAware ADS-B
Mon 07:25:43 PM 40.6220 -73.4520 North 260 299 3,500 -1,286 Descending FlightAware ADS-B
Mon 07:26:03 PM 40.6450 -73.4580 349° North 243 280 3,100 -750 Descending FlightAware ADS-B
Mon 07:26:23 PM 40.6670 -73.4680 341° North 235 270 3,000 -150 Descending FlightAware ADS-B
Mon 07:26:43 PM 40.6860 -73.4760 342° North 226 260 3,000  Level FlightAware ADS-B
Mon 07:27:03 PM 40.7060 -73.4840 343° North 222 255 3,000  Level FlightAware ADS-B
Mon 07:27:26 PM 40.7290 -73.4940 342° North 220 253 3,000 -409 Level FlightAware ADS-B
Mon 07:27:47 PM 40.7470 -73.5060 333° Northwest 217 250 2,700 -878 Descending FlightAware ADS-B
Mon 07:28:07 PM 40.7650 -73.5190 331° Northwest 214 246 2,400 -789 Descending FlightAware ADS-B
Mon 07:28:25 PM 40.7790 -73.5290 332° Northwest 209 241 2,200 -621 Descending FlightAware ADS-B
Mon 07:28:36 PM 40.7860 -73.5400 310° West 197 227 2,100 -462 Descending FlightAware ADS-B
Mon 07:28:51 PM 40.7920 -73.5580 294° West 180 207 2,000 -167 Descending FlightAware ADS-B
Mon 07:29:12 PM 40.7970 -73.5790 287° West 166 191 2,000  Level FlightAware ADS-B
Mon 07:29:27 PM 40.7990 -73.5920 281° West 158 182 2,000  Level FlightAware ADS-B
Mon 07:29:48 PM 40.7940 -73.6120 252° West 163 188 2,000  Level FlightAware ADS-B
Mon 07:30:07 PM 40.7870 -73.6270 238° Southwest 164 189 2,000  Level FlightAware ADS-B
Mon 07:30:25 PM 40.7790 -73.6430 237° Southwest 171 197 2,000  Level FlightAware ADS-B
Mon 07:30:55 PM 40.7620 -73.6630 222° Southwest 173 199 2,000  Level FlightAware ADS-B
Mon 07:31:15 PM 40.7470 -73.6760 213° Southwest 182 209 2,000 -136 Level FlightAware ADS-B
Mon 07:31:39 PM 40.7300 -73.6890 210° Southwest 180 207 1,900 -545 Descending FlightAware ADS-B
Mon 07:31:59 PM 40.7150 -73.7000 209° Southwest 178 205 1,600 -900 Descending FlightAware ADS-B
Mon 07:32:19 PM 40.7020 -73.7110 213° Southwest 162 186 1,300 -900 Descending FlightAware ADS-B
Mon 07:32:39 PM 40.6890 -73.7200 208° Southwest 144 166 1,000 -714 Descending FlightAware ADS-B
Mon 07:33:01 PM 40.6780 -73.7300 215° Southwest 142 163 800 -652 Descending FlightAware ADS-B
Mon 07:33:25 PM 40.6640 -73.7400 208° Southwest 138 159 500 -828 Descending FlightAware ADS-B
Mon 07:33:30 PM 40.6604 -73.7429 211° Southwest 139 160 400 -1,200 Descending FlightAware ADS-B
Mon 07:34:05 PM 40.6430 -73.7570 212° Southwest 138 159 -686 Descending FlightAware ADS-B
Mon 07:34:25 PM 40.6330 -73.7640 208° Southwest 74 85  Level FlightAware ADS-B

Login

Don't have an account? Register now (free) for customized features, flight alerts, and more!